createdAt,value
2023-04-14T00:00:13.191Z,0
2023-04-14T00:01:13.897Z,0
2023-04-14T00:02:15.031Z,0
2023-04-14T00:03:16.180Z,0
2023-04-14T00:04:16.463Z,0
2023-04-14T00:05:16.630Z,0
2023-04-14T00:06:16.984Z,0
2023-04-14T00:07:17.525Z,0
2023-04-14T00:08:18.303Z,0
2023-04-14T00:09:19.215Z,0
2023-04-14T00:10:19.941Z,0
2023-04-14T00:11:21.758Z,0
2023-04-14T00:12:21.481Z,0
2023-04-14T00:13:22.257Z,0
2023-04-14T00:14:22.753Z,0
2023-04-14T00:15:23.697Z,0
2023-04-14T00:16:24.302Z,0
2023-04-14T00:17:25.168Z,0
2023-04-14T00:18:25.749Z,0
2023-04-14T00:19:26.587Z,0
2023-04-14T00:20:27.103Z,0
2023-04-14T00:21:27.633Z,0
2023-04-14T00:22:28.355Z,0
2023-04-14T00:23:28.835Z,0
2023-04-14T00:24:29.984Z,0
2023-04-14T00:25:30.510Z,0
2023-04-14T00:26:31.271Z,0
2023-04-14T00:27:31.967Z,0
2023-04-14T00:28:32.706Z,0
2023-04-14T00:29:33.256Z,0
2023-04-14T00:30:33.553Z,0
2023-04-14T00:31:33.866Z,0
2023-04-14T00:32:34.403Z,0
2023-04-14T00:33:34.715Z,0
2023-04-14T00:34:34.987Z,0
2023-04-14T00:35:35.899Z,0
2023-04-14T00:36:36.429Z,0
2023-04-14T00:37:37.131Z,0
2023-04-14T00:38:37.425Z,0
2023-04-14T00:39:39.040Z,0
2023-04-14T00:40:39.949Z,0
2023-04-14T00:41:40.647Z,0
2023-04-14T00:42:41.147Z,0
2023-04-14T00:43:41.883Z,0
2023-04-14T00:44:42.616Z,0
2023-04-14T00:45:43.130Z,0
2023-04-14T00:46:43.999Z,0
2023-04-14T00:47:44.047Z,0
2023-04-14T00:48:44.834Z,0
2023-04-14T00:49:45.210Z,0
2023-04-14T00:50:45.978Z,0
2023-04-14T00:51:46.734Z,0
2023-04-14T00:52:47.264Z,0
2023-04-14T00:53:47.560Z,0
2023-04-14T00:54:48.267Z,0
2023-04-14T00:55:48.549Z,0
2023-04-14T00:56:50.060Z,0
2023-04-14T00:57:50.773Z,0
2023-04-14T00:58:51.584Z,0
2023-04-14T00:59:52.189Z,0
2023-04-14T01:00:52.936Z,0
2023-04-14T01:01:54.445Z,0
2023-04-14T01:02:54.907Z,0
2023-04-14T01:03:55.382Z,0
2023-04-14T01:05:09.726Z,0
2023-04-14T01:06:55.948Z,0
2023-04-14T01:07:56.547Z,0
2023-04-14T01:08:56.925Z,0
2023-04-14T01:09:57.672Z,0
2023-04-14T01:10:58.584Z,0
2023-04-14T01:11:58.314Z,0
2023-04-14T01:12:58.586Z,0
2023-04-14T01:13:59.740Z,0
2023-04-14T01:14:59.542Z,0
2023-04-14T01:16:00.229Z,0
2023-04-14T01:17:01.365Z,0
2023-04-14T01:18:02.515Z,0
2023-04-14T01:19:02.528Z,0
2023-04-14T01:20:02.028Z,0
2023-04-14T01:21:02.952Z,0
2023-04-14T01:22:03.441Z,0
2023-04-14T01:23:04.405Z,0
2023-04-14T01:24:03.884Z,0
2023-04-14T01:25:04.360Z,0
2023-04-14T01:26:04.868Z,0
2023-04-14T01:27:05.572Z,0
2023-04-14T01:28:05.904Z,0
2023-04-14T01:29:07.193Z,0
2023-04-14T01:30:07.407Z,0
2023-04-14T01:31:08.342Z,0
2023-04-14T01:32:08.237Z,0
2023-04-14T01:33:09.226Z,0
2023-04-14T01:34:09.342Z,0
2023-04-14T01:35:09.826Z,0
2023-04-14T01:36:10.730Z,0
2023-04-14T01:37:11.939Z,0
2023-04-14T01:38:12.063Z,0
2023-04-14T01:39:13.133Z,0
2023-04-14T01:40:12.546Z,0
2023-04-14T01:41:13.312Z,0
2023-04-14T01:42:13.789Z,0
2023-04-14T01:43:14.505Z,0
2023-04-14T01:44:15.301Z,0
2023-04-14T01:45:16.466Z,0
2023-04-14T01:46:16.730Z,0
2023-04-14T01:47:16.582Z,0
2023-04-14T01:48:17.785Z,0
2023-04-14T01:49:18.049Z,0
2023-04-14T01:50:17.285Z,0
2023-04-14T01:51:18.425Z,0
2023-04-14T01:52:18.711Z,0
2023-04-14T01:53:19.458Z,0
2023-04-14T01:54:19.996Z,0
2023-04-14T01:55:20.761Z,0
2023-04-14T01:56:21.013Z,0
2023-04-14T01:57:21.297Z,0
2023-04-14T01:58:22.234Z,0
2023-04-14T01:59:22.005Z,0
2023-04-14T02:00:22.617Z,0
2023-04-14T02:01:23.565Z,0
2023-04-14T02:02:24.913Z,0
2023-04-14T02:03:25.101Z,0
2023-04-14T02:04:25.365Z,0
2023-04-14T02:05:25.048Z,0
2023-04-14T02:06:26.187Z,0
2023-04-14T02:07:25.673Z,0
2023-04-14T02:08:26.796Z,0
2023-04-14T02:09:27.134Z,0
2023-04-14T02:10:27.567Z,0
2023-04-14T02:11:28.255Z,0
2023-04-14T02:12:29.326Z,0
2023-04-14T02:13:30.011Z,0
2023-04-14T02:14:30.537Z,0
2023-04-14T02:15:30.999Z,0
2023-04-14T02:16:31.717Z,0
2023-04-14T02:17:32.916Z,0
2023-04-14T02:18:32.854Z,0
2023-04-14T02:19:33.798Z,0
2023-04-14T02:20:34.418Z,0
2023-04-14T02:21:34.925Z,0
2023-04-14T02:22:35.626Z,0
2023-04-14T02:23:36.160Z,0
2023-04-14T02:24:36.874Z,0
2023-04-14T02:25:37.590Z,0
2023-04-14T02:26:38.535Z,0
2023-04-14T02:27:38.221Z,0
2023-04-14T02:28:38.557Z,0
2023-04-14T02:29:39.154Z,0
2023-04-14T02:30:39.314Z,0
2023-04-14T02:31:40.005Z,0
2023-04-14T02:32:40.553Z,0
2023-04-14T02:33:41.286Z,0
2023-04-14T02:34:43.481Z,0
2023-04-14T02:35:42.185Z,0
2023-04-14T02:36:43.083Z,0
2023-04-14T02:37:43.616Z,0
2023-04-14T02:38:44.528Z,0
2023-04-14T02:39:44.611Z,0
2023-04-14T02:40:44.983Z,0
2023-04-14T02:41:45.491Z,0
2023-04-14T02:42:46.187Z,0
2023-04-14T02:43:46.879Z,0
2023-04-14T02:44:47.839Z,0
2023-04-14T02:45:48.638Z,0
2023-04-14T02:46:49.497Z,0
2023-04-14T02:47:50.180Z,0
2023-04-14T02:48:50.484Z,0
2023-04-14T02:49:51.184Z,0
2023-04-14T02:50:51.372Z,0
2023-04-14T02:51:52.508Z,0
2023-04-14T02:52:52.002Z,0
2023-04-14T02:53:53.086Z,0
2023-04-14T02:54:53.635Z,0
2023-04-14T02:55:53.933Z,0
2023-04-14T02:56:54.234Z,0
2023-04-14T02:57:55.135Z,0
2023-04-14T02:58:55.643Z,0
2023-04-14T02:59:56.186Z,0
2023-04-14T03:00:56.958Z,0
2023-04-14T03:01:58.375Z,0
2023-04-14T03:02:58.964Z,0
2023-04-14T03:03:59.158Z,0
2023-04-14T03:04:59.760Z,0
2023-04-14T03:06:00.264Z,0
2023-04-14T03:07:00.591Z,0
2023-04-14T03:08:01.301Z,0
2023-04-14T03:09:02.566Z,0
2023-04-14T03:10:02.267Z,0
2023-04-14T03:11:03.285Z,0
2023-04-14T03:12:04.196Z,0
2023-04-14T03:13:05.132Z,0
2023-04-14T03:14:05.428Z,0
2023-04-14T03:15:06.184Z,0
2023-04-14T03:16:07.598Z,0
2023-04-14T03:17:09.771Z,0
2023-04-14T03:18:08.463Z,0
2023-04-14T03:19:09.237Z,0
2023-04-14T03:20:09.954Z,0
2023-04-14T03:21:10.378Z,0
2023-04-14T03:22:11.154Z,0
2023-04-14T03:23:11.912Z,0
2023-04-14T03:24:12.270Z,0
2023-04-14T03:25:13.202Z,0
2023-04-14T03:26:14.114Z,0
2023-04-14T03:27:14.620Z,0
2023-04-14T03:28:15.312Z,0
2023-04-14T03:29:16.332Z,0
2023-04-14T03:30:16.886Z,0
2023-04-14T03:31:17.394Z,0
2023-04-14T03:32:18.138Z,0
2023-04-14T03:33:18.841Z,0
2023-04-14T03:34:19.145Z,0
2023-04-14T03:35:19.908Z,0
2023-04-14T03:36:20.608Z,0
2023-04-14T03:37:21.443Z,0
2023-04-14T03:38:22.189Z,0
2023-04-14T03:39:23.139Z,0
2023-04-14T03:40:23.881Z,0
2023-04-14T03:41:24.083Z,0
2023-04-14T03:42:25.359Z,0
2023-04-14T03:43:25.842Z,0
2023-04-14T03:44:26.336Z,0
2023-04-14T03:45:27.082Z,0
2023-04-14T03:46:28.940Z,0
2023-04-14T03:47:29.419Z,0
2023-04-14T03:48:28.016Z,0
2023-04-14T03:49:28.726Z,0
2023-04-14T03:50:29.446Z,0
2023-04-14T03:51:29.662Z,0
2023-04-14T03:52:30.194Z,0
2023-04-14T03:53:30.508Z,0
2023-04-14T03:54:31.038Z,0
2023-04-14T03:55:31.768Z,0
2023-04-14T03:56:32.265Z,0
2023-04-14T03:57:32.375Z,0
2023-04-14T03:58:33.046Z,0
2023-04-14T03:59:33.343Z,0
2023-04-14T04:00:34.072Z,0
2023-04-14T04:01:34.487Z,0
2023-04-14T04:02:35.927Z,0
2023-04-14T04:03:36.986Z,0
2023-04-14T04:04:36.200Z,0
2023-04-14T04:05:35.735Z,0
2023-04-14T04:06:36.437Z,0
2023-04-14T04:07:37.196Z,0
2023-04-14T04:08:37.684Z,0
2023-04-14T04:09:38.388Z,0
2023-04-14T04:10:39.127Z,0
2023-04-14T04:11:39.200Z,0
2023-04-14T04:12:39.897Z,0
2023-04-14T04:13:40.962Z,0
2023-04-14T04:14:44.476Z,0
2023-04-14T04:15:42.766Z,0
2023-04-14T04:16:43.019Z,0
2023-04-14T04:17:43.737Z,0
2023-04-14T04:18:44.495Z,0
2023-04-14T04:19:44.785Z,0
2023-04-14T04:20:46.036Z,0
2023-04-14T04:21:45.679Z,0
2023-04-14T04:22:46.587Z,0
2023-04-14T04:23:47.114Z,0
2023-04-14T04:24:47.842Z,0
2023-04-14T04:25:48.568Z,0
2023-04-14T04:26:51.526Z,0
2023-04-14T04:27:50.216Z,0
2023-04-14T04:28:50.508Z,0
2023-04-14T04:29:51.011Z,0
2023-04-14T04:30:52.002Z,0
2023-04-14T04:31:55.100Z,0
2023-04-14T04:32:53.311Z,0
2023-04-14T04:33:53.803Z,0
2023-04-14T04:34:54.264Z,0
2023-04-14T04:35:55.203Z,0
2023-04-14T04:36:56.096Z,0
2023-04-14T04:37:56.604Z,0
2023-04-14T04:38:57.293Z,0
2023-04-14T04:39:58.028Z,0
2023-04-14T04:40:58.720Z,0
2023-04-14T04:41:59.161Z,0
2023-04-14T04:42:59.859Z,0
2023-04-14T04:44:00.776Z,0
2023-04-14T04:45:01.717Z,0
2023-04-14T04:46:02.890Z,0
2023-04-14T04:47:02.644Z,0
2023-04-14T04:48:03.454Z,0
2023-04-14T04:49:04.771Z,0
2023-04-14T04:50:04.458Z,0
2023-04-14T04:51:05.175Z,0
2023-04-14T04:52:05.361Z,0
2023-04-14T04:53:06.306Z,0
2023-04-14T04:54:07.090Z,0
2023-04-14T04:55:08.202Z,0
2023-04-14T04:56:08.904Z,0
2023-04-14T04:57:09.049Z,0
2023-04-14T04:58:09.932Z,0
2023-04-14T04:59:11.087Z,0
2023-04-14T05:00:10.608Z,0
2023-04-14T05:01:11.547Z,0
2023-04-14T05:02:12.800Z,0
2023-04-14T05:03:13.197Z,0
2023-04-14T05:04:13.629Z,0
2023-04-14T05:05:13.419Z,0
2023-04-14T05:06:13.936Z,0
2023-04-14T05:07:14.661Z,0
2023-04-14T05:08:17.551Z,0
2023-04-14T05:09:16.687Z,0
2023-04-14T05:10:16.451Z,0
2023-04-14T05:11:16.960Z,5.63
2023-04-14T05:12:17.345Z,5.63
2023-04-14T05:13:17.503Z,5.63
2023-04-14T05:14:17.836Z,5.63
2023-04-14T05:15:18.526Z,5.63
2023-04-14T05:16:19.436Z,5.63
2023-04-14T05:17:19.397Z,5.63
2023-04-14T05:18:19.964Z,5.63
2023-04-14T05:19:20.506Z,5.63
2023-04-14T05:20:21.201Z,5.63
2023-04-14T05:21:22.394Z,5.63
2023-04-14T05:22:23.002Z,5.63
2023-04-14T05:23:23.336Z,5.63
2023-04-14T05:24:24.027Z,5.63
2023-04-14T05:25:24.568Z,5.63
2023-04-14T05:27:19.415Z,5.63
2023-04-14T05:28:36.413Z,5.63
2023-04-14T05:29:36.886Z,5.63
2023-04-14T05:30:37.446Z,5.63
2023-04-14T05:31:38.686Z,5.63
2023-04-14T05:32:40.281Z,5.63
2023-04-14T05:33:40.257Z,5.63
2023-04-14T05:34:40.787Z,5.63
2023-04-14T05:35:41.787Z,5.63
2023-04-14T05:36:42.530Z,5.63
2023-04-14T05:37:46.854Z,5.63
2023-04-14T05:38:43.557Z,5.63
2023-04-14T05:39:44.084Z,5.63
2023-04-14T05:40:44.993Z,5.63
2023-04-14T05:41:45.333Z,5.63
2023-04-14T05:42:46.699Z,5.63
2023-04-14T05:43:47.607Z,11.25
2023-04-14T05:44:47.526Z,11.25
2023-04-14T05:45:47.636Z,11.25
2023-04-14T05:46:48.733Z,11.25
2023-04-14T05:47:49.048Z,11.25
2023-04-14T05:48:48.371Z,11.25
2023-04-14T05:49:48.965Z,11.25
2023-04-14T05:50:49.654Z,11.25
2023-04-14T05:51:50.861Z,11.25
2023-04-14T05:52:51.221Z,11.25
2023-04-14T05:53:51.748Z,11.25
2023-04-14T05:54:54.314Z,11.25
2023-04-14T05:55:52.961Z,11.25
2023-04-14T05:56:53.029Z,11.25
2023-04-14T05:57:53.726Z,11.25
2023-04-14T05:58:54.653Z,11.25
2023-04-14T05:59:55.125Z,11.25
2023-04-14T06:00:55.194Z,11.25
2023-04-14T06:01:56.557Z,11.25
2023-04-14T06:02:57.545Z,11.25
2023-04-14T06:03:58.834Z,11.25
2023-04-14T06:04:58.156Z,11.25
2023-04-14T06:05:57.872Z,11.25
2023-04-14T06:06:58.813Z,11.25
2023-04-14T06:07:58.709Z,16.88
2023-04-14T06:08:59.726Z,16.88
2023-04-14T06:09:59.247Z,16.88
2023-04-14T06:11:00.528Z,16.88
2023-04-14T06:12:00.423Z,22.5
2023-04-14T06:13:00.865Z,16.88
2023-04-14T06:14:01.216Z,16.88
2023-04-14T06:15:01.774Z,16.88
2023-04-14T06:16:02.977Z,16.88
2023-04-14T06:17:04.028Z,16.88
2023-04-14T06:18:03.960Z,16.88
2023-04-14T06:19:04.693Z,16.88
2023-04-14T06:20:05.446Z,16.88
2023-04-14T06:21:05.939Z,16.88
2023-04-14T06:22:07.114Z,16.88
2023-04-14T06:23:07.679Z,16.88
2023-04-14T06:24:08.590Z,16.88
2023-04-14T06:25:09.084Z,16.88
2023-04-14T06:26:10.008Z,16.88
2023-04-14T06:27:10.483Z,16.88
2023-04-14T06:28:11.641Z,16.88
2023-04-14T06:29:12.598Z,16.88
2023-04-14T06:30:12.537Z,16.88
2023-04-14T06:31:13.103Z,16.88
2023-04-14T06:32:13.970Z,16.88
2023-04-14T06:33:15.340Z,16.88
2023-04-14T06:34:14.684Z,16.88
2023-04-14T06:35:33.353Z,22.5
2023-04-14T06:36:15.127Z,22.5
2023-04-14T06:37:15.834Z,22.5
2023-04-14T06:38:16.728Z,22.5
2023-04-14T06:39:17.945Z,22.5
2023-04-14T06:40:17.612Z,22.5
2023-04-14T06:41:18.218Z,16.88
2023-04-14T06:42:18.703Z,16.88
2023-04-14T06:43:19.230Z,16.88
2023-04-14T06:44:20.157Z,16.88
2023-04-14T06:45:20.276Z,16.88
2023-04-14T06:46:20.761Z,16.88
2023-04-14T06:47:21.543Z,16.88
2023-04-14T06:48:22.303Z,16.88
2023-04-14T06:49:23.198Z,16.88
2023-04-14T06:50:23.930Z,22.5
2023-04-14T06:51:24.825Z,22.5
2023-04-14T06:52:25.826Z,22.5
2023-04-14T06:53:26.171Z,22.5
2023-04-14T06:54:26.710Z,22.5
2023-04-14T06:55:27.036Z,28.13
2023-04-14T06:56:27.909Z,28.13
2023-04-14T06:57:28.825Z,28.13
2023-04-14T06:58:29.803Z,28.13
2023-04-14T06:59:30.526Z,28.13
2023-04-14T07:00:31.435Z,28.13
2023-04-14T07:01:32.163Z,28.13
2023-04-14T07:02:33.526Z,33.75
2023-04-14T07:03:34.081Z,33.75
2023-04-14T07:04:34.168Z,39.38
2023-04-14T07:05:35.090Z,39.38
2023-04-14T07:06:34.850Z,39.38
2023-04-14T07:07:35.997Z,33.75
2023-04-14T07:08:36.308Z,33.75
2023-04-14T07:09:37.329Z,33.75
2023-04-14T07:10:38.439Z,33.75
2023-04-14T07:11:38.648Z,33.75
2023-04-14T07:12:39.194Z,33.75
2023-04-14T07:13:39.240Z,33.75
2023-04-14T07:14:39.732Z,28.13
2023-04-14T07:15:41.230Z,28.13
2023-04-14T07:16:41.384Z,28.13
2023-04-14T07:17:42.178Z,28.13
2023-04-14T07:18:42.927Z,33.75
2023-04-14T07:19:44.065Z,33.75
2023-04-14T07:20:43.780Z,33.75
2023-04-14T07:21:44.085Z,33.75
2023-04-14T07:22:44.633Z,28.13
2023-04-14T07:23:45.079Z,28.13
2023-04-14T07:24:45.849Z,28.13
2023-04-14T07:25:46.341Z,28.13
2023-04-14T07:26:47.060Z,28.13
2023-04-14T07:28:03.409Z,28.13
2023-04-14T07:28:48.452Z,33.75
2023-04-14T07:29:49.165Z,33.75
2023-04-14T07:30:49.885Z,39.38
2023-04-14T07:31:51.214Z,39.38
2023-04-14T07:32:51.373Z,39.38
2023-04-14T07:33:51.801Z,39.38
2023-04-14T07:34:52.901Z,39.38
2023-04-14T07:36:14.549Z,45
2023-04-14T07:37:55.237Z,45
2023-04-14T07:38:56.195Z,45
2023-04-14T07:39:56.935Z,45
2023-04-14T07:40:57.422Z,39.38
2023-04-14T07:41:58.346Z,39.38
2023-04-14T07:42:58.850Z,39.38
2023-04-14T07:43:59.693Z,39.38
2023-04-14T07:44:59.647Z,39.38
2023-04-14T07:46:00.364Z,39.38
2023-04-14T07:47:01.267Z,39.38
2023-04-14T07:48:03.355Z,33.75
2023-04-14T07:49:01.087Z,33.75
2023-04-14T07:50:01.436Z,33.75
2023-04-14T07:51:01.982Z,33.75
2023-04-14T07:52:02.899Z,33.75
2023-04-14T07:53:03.634Z,33.75
2023-04-14T07:54:04.416Z,33.75
2023-04-14T07:55:04.579Z,39.38
2023-04-14T07:56:04.123Z,39.38
2023-04-14T07:57:04.897Z,39.38
2023-04-14T07:58:05.789Z,39.38
2023-04-14T07:59:06.847Z,39.38
2023-04-14T08:00:07.349Z,39.38
2023-04-14T08:01:08.164Z,45
2023-04-14T08:02:09.227Z,45
2023-04-14T08:03:09.589Z,45
2023-04-14T08:04:11.113Z,45
2023-04-14T08:05:10.322Z,45
2023-04-14T08:06:11.271Z,45
2023-04-14T08:07:11.370Z,45
2023-04-14T08:08:11.514Z,45
2023-04-14T08:09:13.394Z,45
2023-04-14T08:10:13.139Z,45
2023-04-14T08:11:14.062Z,45
2023-04-14T08:12:14.487Z,45
2023-04-14T08:13:17.140Z,45
2023-04-14T08:14:15.295Z,45
2023-04-14T08:15:15.838Z,45
2023-04-14T08:16:16.895Z,45
2023-04-14T08:17:16.885Z,45
2023-04-14T08:18:17.853Z,45
2023-04-14T08:19:18.991Z,45
2023-04-14T08:20:18.690Z,45
2023-04-14T08:21:19.834Z,45
2023-04-14T08:22:19.776Z,45
2023-04-14T08:23:20.526Z,45
2023-04-14T08:24:21.233Z,45
2023-04-14T08:25:21.743Z,45
2023-04-14T08:26:22.443Z,45
2023-04-14T08:27:23.176Z,45
2023-04-14T08:28:24.187Z,39.38
2023-04-14T08:29:24.757Z,39.38
2023-04-14T08:30:27.511Z,39.38
2023-04-14T08:31:25.977Z,39.38
2023-04-14T08:32:28.377Z,39.38
2023-04-14T08:33:27.939Z,39.38
2023-04-14T08:34:39.317Z,39.38
2023-04-14T08:36:11.257Z,39.38
2023-04-14T08:36:53.047Z,39.38
2023-04-14T08:37:53.960Z,45
2023-04-14T08:38:54.684Z,45
2023-04-14T08:39:55.387Z,45
2023-04-14T08:40:56.123Z,45
2023-04-14T08:41:56.618Z,45
2023-04-14T08:42:57.167Z,45
2023-04-14T08:43:57.887Z,45
2023-04-14T08:44:58.481Z,45
2023-04-14T08:45:59.439Z,45
2023-04-14T08:47:00.048Z,45
2023-04-14T08:48:01.142Z,50.63
2023-04-14T08:49:01.251Z,50.63
2023-04-14T08:50:00.906Z,50.63
2023-04-14T08:51:01.484Z,50.63
2023-04-14T08:52:02.261Z,50.63
2023-04-14T08:53:02.841Z,50.63
2023-04-14T08:54:03.814Z,50.63
2023-04-14T08:55:04.478Z,50.63
2023-04-14T08:56:09.410Z,56.25
2023-04-14T08:57:05.915Z,56.25
2023-04-14T08:58:06.674Z,61.88
2023-04-14T08:59:07.619Z,67.5
2023-04-14T09:00:08.442Z,67.5
2023-04-14T09:01:09.366Z,67.5
2023-04-14T09:02:10.699Z,67.5
2023-04-14T09:03:11.287Z,73.13
2023-04-14T09:04:14.348Z,73.13
2023-04-14T09:05:11.813Z,73.13
2023-04-14T09:06:12.550Z,73.13
2023-04-14T09:07:13.053Z,78.75
2023-04-14T09:08:13.341Z,78.75
2023-04-14T09:09:14.179Z,78.75
2023-04-14T09:10:14.892Z,78.75
2023-04-14T09:11:15.636Z,78.75
2023-04-14T09:12:16.355Z,73.13
2023-04-14T09:13:17.096Z,78.75
2023-04-14T09:14:18.334Z,78.75
2023-04-14T09:15:18.088Z,78.75
2023-04-14T09:16:19.359Z,84.38
2023-04-14T09:17:19.533Z,84.38
2023-04-14T09:18:19.659Z,84.38
2023-04-14T09:19:23.559Z,84.38
2023-04-14T09:21:57.680Z,84.38
2023-04-14T09:22:15.509Z,84.38
2023-04-14T09:23:18.022Z,90
2023-04-14T09:24:17.500Z,95.63
2023-04-14T09:25:17.590Z,95.63
2023-04-14T09:26:18.558Z,101.25
2023-04-14T09:27:17.983Z,101.25
2023-04-14T09:28:18.562Z,101.25
2023-04-14T09:29:19.877Z,95.63
2023-04-14T09:30:19.819Z,95.63
2023-04-14T09:31:21.220Z,90
2023-04-14T09:32:21.344Z,78.75
2023-04-14T09:34:23.857Z,78.75
2023-04-14T09:35:23.994Z,78.75
2023-04-14T09:36:24.227Z,84.38
2023-04-14T09:37:25.333Z,78.75
2023-04-14T09:38:25.053Z,78.75
2023-04-14T09:39:25.797Z,78.75
2023-04-14T09:40:26.480Z,78.75
2023-04-14T09:41:27.393Z,78.75
2023-04-14T09:42:28.246Z,78.75
2023-04-14T09:43:29.199Z,73.13
2023-04-14T09:44:30.196Z,78.75
2023-04-14T09:45:30.775Z,78.75
2023-04-14T09:46:32.065Z,78.75
2023-04-14T09:47:32.155Z,73.13
2023-04-14T09:48:32.114Z,73.13
2023-04-14T09:49:32.852Z,73.13
2023-04-14T09:50:34.032Z,67.5
2023-04-14T09:51:34.153Z,67.5
2023-04-14T09:52:34.065Z,73.13
2023-04-14T09:53:34.787Z,73.13
2023-04-14T09:54:35.559Z,73.13
2023-04-14T09:55:36.202Z,73.13
2023-04-14T09:56:36.664Z,73.13
2023-04-14T09:57:37.220Z,73.13
2023-04-14T09:58:41.419Z,73.13
2023-04-14T09:59:37.978Z,73.13
2023-04-14T10:00:38.904Z,73.13
2023-04-14T10:01:39.465Z,73.13
2023-04-14T10:02:40.152Z,73.13
2023-04-14T10:03:40.768Z,73.13
2023-04-14T10:04:41.188Z,78.75
2023-04-14T10:05:45.746Z,90
2023-04-14T10:06:41.536Z,95.63
2023-04-14T10:07:42.667Z,95.63
2023-04-14T10:08:43.431Z,90
2023-04-14T10:09:44.383Z,90
2023-04-14T10:10:44.712Z,84.38
2023-04-14T10:11:45.304Z,84.38
2023-04-14T10:12:46.236Z,84.38
2023-04-14T10:13:46.983Z,78.75
2023-04-14T10:14:47.780Z,78.75
2023-04-14T10:15:48.759Z,84.38
2023-04-14T10:16:50.464Z,84.38
2023-04-14T10:17:51.158Z,84.38
2023-04-14T10:18:50.854Z,84.38
2023-04-14T10:19:52.004Z,84.38
2023-04-14T10:20:51.580Z,84.38
2023-04-14T10:21:52.493Z,90
2023-04-14T10:22:56.579Z,84.38
2023-04-14T10:23:54.425Z,78.75
2023-04-14T10:24:54.947Z,78.75
2023-04-14T10:25:55.629Z,73.13
2023-04-14T10:26:56.250Z,67.5
2023-04-14T10:27:56.962Z,61.88
2023-04-14T10:28:57.746Z,61.88
2023-04-14T10:29:58.570Z,61.88
2023-04-14T10:30:59.261Z,56.25
2023-04-14T10:32:00.697Z,50.63
2023-04-14T10:33:00.778Z,50.63
2023-04-14T10:34:01.635Z,50.63
2023-04-14T10:35:02.336Z,50.63
2023-04-14T10:36:03.285Z,56.25
2023-04-14T10:37:03.682Z,56.25
2023-04-14T10:38:04.201Z,56.25
2023-04-14T10:39:05.739Z,61.88
2023-04-14T10:40:05.662Z,61.88
2023-04-14T10:41:06.572Z,56.25
2023-04-14T10:42:07.321Z,56.25
2023-04-14T10:43:08.591Z,61.88
2023-04-14T10:44:08.526Z,61.88
2023-04-14T10:45:09.285Z,61.88
2023-04-14T10:46:10.251Z,61.88
2023-04-14T10:47:10.960Z,67.5
2023-04-14T10:48:11.147Z,73.13
2023-04-14T10:49:12.620Z,73.13
2023-04-14T10:50:12.429Z,73.13
2023-04-14T10:51:13.446Z,73.13
2023-04-14T10:52:14.384Z,73.13
2023-04-14T10:53:15.258Z,73.13
2023-04-14T10:54:16.020Z,67.5
2023-04-14T10:55:16.628Z,61.88
2023-04-14T10:56:17.585Z,61.88
2023-04-14T10:57:18.306Z,67.5
2023-04-14T10:58:18.889Z,56.25
2023-04-14T10:59:19.579Z,50.63
2023-04-14T11:00:20.517Z,45
2023-04-14T11:01:21.693Z,50.63
2023-04-14T11:02:21.628Z,56.25
2023-04-14T11:03:24.611Z,50.63
2023-04-14T11:04:23.890Z,50.63
2023-04-14T11:05:23.473Z,56.25
2023-04-14T11:06:24.248Z,56.25
2023-04-14T11:07:24.872Z,50.63
2023-04-14T11:08:25.989Z,56.25
2023-04-14T11:09:25.886Z,61.88
2023-04-14T11:10:27.110Z,61.88
2023-04-14T11:11:27.609Z,56.25
2023-04-14T11:12:28.545Z,56.25
2023-04-14T11:13:29.248Z,50.63
2023-04-14T11:14:29.561Z,56.25
2023-04-14T11:15:30.337Z,50.63
2023-04-14T11:16:31.510Z,56.25
2023-04-14T11:17:32.520Z,56.25
2023-04-14T11:18:32.581Z,56.25
2023-04-14T11:19:33.490Z,50.63
2023-04-14T11:20:34.724Z,50.63
2023-04-14T11:21:34.265Z,50.63
2023-04-14T11:22:35.153Z,45
2023-04-14T11:23:35.845Z,45
2023-04-14T11:24:36.393Z,50.63
2023-04-14T11:25:40.062Z,45
2023-04-14T11:26:37.891Z,45
2023-04-14T11:27:38.940Z,50.63
2023-04-14T11:28:39.645Z,56.25
2023-04-14T11:29:40.389Z,50.63
2023-04-14T11:30:41.309Z,56.25
2023-04-14T11:31:42.337Z,61.88
2023-04-14T11:32:43.305Z,61.88
2023-04-14T11:33:43.801Z,56.25
2023-04-14T11:34:44.700Z,45
2023-04-14T11:35:45.621Z,45
2023-04-14T11:36:46.581Z,50.63
2023-04-14T11:37:46.890Z,50.63
2023-04-14T11:38:47.665Z,50.63
2023-04-14T11:39:48.626Z,50.63
2023-04-14T11:40:49.375Z,50.63
2023-04-14T11:41:49.947Z,45
2023-04-14T11:42:50.953Z,45
2023-04-14T11:43:52.141Z,45
2023-04-14T11:44:51.640Z,39.38
2023-04-14T11:45:52.402Z,39.38
2023-04-14T11:46:53.046Z,39.38
2023-04-14T11:47:53.894Z,39.38
2023-04-14T11:48:54.632Z,39.38
2023-04-14T11:49:55.181Z,45
2023-04-14T11:50:56.404Z,39.38
2023-04-14T11:51:56.827Z,45
2023-04-14T11:52:57.966Z,45
2023-04-14T11:53:57.241Z,39.38
2023-04-14T11:54:58.882Z,45
2023-04-14T11:55:59.915Z,56.25
2023-04-14T11:57:00.611Z,61.88
2023-04-14T11:58:01.097Z,61.88
2023-04-14T11:59:02.165Z,67.5
2023-04-14T12:00:03.286Z,67.5
2023-04-14T12:01:06.953Z,73.13
2023-04-14T12:02:03.959Z,78.75
2023-04-14T12:03:05.725Z,73.13
2023-04-14T12:04:07.057Z,73.13
2023-04-14T12:06:08.690Z,84.38
2023-04-14T12:07:07.402Z,78.75
2023-04-14T12:08:08.047Z,78.75
2023-04-14T12:09:08.110Z,84.38
2023-04-14T12:10:08.615Z,90
2023-04-14T12:11:09.319Z,101.25
2023-04-14T12:12:10.038Z,118.13
2023-04-14T12:13:10.598Z,135
2023-04-14T12:14:10.942Z,146.25
2023-04-14T12:15:11.676Z,185.63
2023-04-14T12:16:13.116Z,230.63
2023-04-14T12:17:13.067Z,281.25
2023-04-14T12:18:14.149Z,270
2023-04-14T12:19:15.024Z,241.88
2023-04-14T12:20:14.768Z,303.75
2023-04-14T12:21:20.437Z,219.38
2023-04-14T12:22:16.486Z,185.63
2023-04-14T12:23:17.214Z,163.13
2023-04-14T12:24:18.141Z,151.88
2023-04-14T12:25:18.652Z,140.63
2023-04-14T12:26:19.374Z,135
2023-04-14T12:27:20.502Z,135
2023-04-14T12:28:21.327Z,140.63
2023-04-14T12:29:21.817Z,135
2023-04-14T12:30:22.520Z,135
2023-04-14T12:31:23.235Z,135
2023-04-14T12:32:24.090Z,135
2023-04-14T12:33:25.006Z,146.25
2023-04-14T12:34:25.632Z,151.88
2023-04-14T12:35:26.321Z,174.38
2023-04-14T12:36:36.957Z,208.13
2023-04-14T12:37:27.191Z,258.75
2023-04-14T12:38:27.630Z,213.75
2023-04-14T12:39:28.143Z,225
2023-04-14T12:40:29.285Z,157.5
2023-04-14T12:41:29.000Z,135
2023-04-14T12:42:29.728Z,118.13
2023-04-14T12:43:30.432Z,101.25
2023-04-14T12:44:31.447Z,90
2023-04-14T12:45:33.959Z,84.38
2023-04-14T12:46:32.738Z,84.38
2023-04-14T12:47:33.673Z,78.75
2023-04-14T12:48:34.326Z,73.13
2023-04-14T12:49:34.816Z,67.5
2023-04-14T12:50:35.624Z,56.25
2023-04-14T12:51:36.103Z,56.25
2023-04-14T12:52:36.951Z,50.63
2023-04-14T12:53:37.879Z,50.63
2023-04-14T12:54:38.605Z,50.63
2023-04-14T12:55:39.544Z,56.25
2023-04-14T12:56:40.359Z,56.25
2023-04-14T12:57:40.700Z,61.88
2023-04-14T12:58:41.539Z,73.13
2023-04-14T12:59:42.689Z,78.75
2023-04-14T13:00:42.760Z,84.38
2023-04-14T13:01:43.320Z,78.75
2023-04-14T13:02:45.462Z,73.13
2023-04-14T13:03:43.919Z,73.13
2023-04-14T13:04:43.960Z,67.5
2023-04-14T13:05:44.649Z,67.5
2023-04-14T13:06:45.563Z,67.5
2023-04-14T13:07:46.463Z,78.75
2023-04-14T13:08:46.900Z,78.75
2023-04-14T13:09:47.814Z,73.13
2023-04-14T13:10:48.766Z,61.88
2023-04-14T13:11:48.700Z,45
2023-04-14T13:12:48.978Z,45
2023-04-14T13:13:49.923Z,39.38
2023-04-14T13:14:50.670Z,39.38
2023-04-14T13:16:33.232Z,33.75
2023-04-14T13:17:54.159Z,28.13
2023-04-14T13:18:53.458Z,28.13
2023-04-14T13:19:54.405Z,33.75
2023-04-14T13:20:55.322Z,33.75
2023-04-14T13:21:55.029Z,33.75
2023-04-14T13:22:57.549Z,33.75
2023-04-14T13:23:56.281Z,33.75
2023-04-14T13:24:56.993Z,33.75
2023-04-14T13:25:57.695Z,39.38
2023-04-14T13:26:58.423Z,39.38
2023-04-14T13:27:59.127Z,39.38
2023-04-14T13:29:00.200Z,39.38
2023-04-14T13:30:00.621Z,45
2023-04-14T13:31:01.163Z,50.63
2023-04-14T13:32:02.041Z,50.63
2023-04-14T13:33:02.090Z,56.25
2023-04-14T13:34:03.058Z,61.88
2023-04-14T13:35:03.963Z,61.88
2023-04-14T13:36:03.936Z,67.5
2023-04-14T13:37:04.479Z,67.5
2023-04-14T13:38:05.016Z,78.75
2023-04-14T13:39:05.846Z,90
2023-04-14T13:40:05.754Z,101.25
2023-04-14T13:41:06.679Z,112.5
2023-04-14T13:42:07.417Z,129.38
2023-04-14T13:43:08.132Z,140.63
2023-04-14T13:44:09.004Z,163.13
2023-04-14T13:45:09.792Z,174.38
2023-04-14T13:46:10.562Z,185.63
2023-04-14T13:47:11.194Z,196.88
2023-04-14T13:48:11.862Z,180
2023-04-14T13:49:12.632Z,174.38
2023-04-14T13:50:13.158Z,174.38
2023-04-14T13:51:13.897Z,191.25
2023-04-14T13:52:14.601Z,163.13
2023-04-14T13:53:15.203Z,157.5
2023-04-14T13:54:16.120Z,157.5
2023-04-14T13:55:16.434Z,157.5
2023-04-14T13:56:17.150Z,157.5